createdAt,value
2018-11-11T00:00:54.045Z,22.13
2018-11-11T00:03:24.278Z,23.33
2018-11-11T00:05:55.213Z,22.77
2018-11-11T00:08:26.022Z,21.77
2018-11-11T00:10:57.019Z,24.77
2018-11-11T00:13:27.272Z,21.60
2018-11-11T00:15:58.141Z,21.27
2018-11-11T00:18:29.425Z,21.37
2018-11-11T00:21:00.157Z,22.73
2018-11-11T00:23:30.017Z,22.33
2018-11-11T00:26:00.404Z,22.37
2018-11-11T00:28:31.421Z,24.53
2018-11-11T00:31:02.543Z,21.97
2018-11-11T00:33:32.898Z,21.40
2018-11-11T00:36:03.721Z,21.60
2018-11-11T00:38:34.022Z,20.83
2018-11-11T00:41:05.260Z,22.07
2018-11-11T00:43:36.047Z,21.57
2018-11-11T00:46:07.026Z,21.93
2018-11-11T00:48:38.690Z,22.60
2018-11-11T00:51:09.304Z,23.07
2018-11-11T00:53:40.042Z,21.70
2018-11-11T00:56:10.876Z,22.77
2018-11-11T00:58:41.630Z,22.63
2018-11-11T01:01:12.592Z,22.87
2018-11-11T01:03:43.814Z,22.87
2018-11-11T01:06:14.636Z,21.77
2018-11-11T01:08:45.479Z,20.93
2018-11-11T01:11:16.266Z,21.97
2018-11-11T01:13:47.083Z,22.37
2018-11-11T01:16:18.027Z,22.20
2018-11-11T01:18:49.823Z,22.50
2018-11-11T01:21:20.636Z,21.70
2018-11-11T01:23:51.337Z,23.77
2018-11-11T01:26:22.450Z,20.87
2018-11-11T01:28:53.425Z,20.17
2018-11-11T01:31:24.338Z,19.50
2018-11-11T01:33:55.240Z,21.00
2018-11-11T01:36:26.794Z,19.37
2018-11-11T01:38:57.807Z,22.67
2018-11-11T01:41:28.759Z,21.97
2018-11-11T01:44:00.007Z,20.60
2018-11-11T01:46:30.928Z,20.47
2018-11-11T01:49:02.269Z,21.47
2018-11-11T01:51:32.235Z,22.03
2018-11-11T01:54:03.884Z,24.77
2018-11-11T01:56:35.157Z,24.23
2018-11-11T01:59:06.819Z,23.10
2018-11-11T02:01:37.402Z,22.03
2018-11-11T02:04:08.433Z,21.67
2018-11-11T02:06:39.682Z,23.10
2018-11-11T02:09:13.135Z,21.00
2018-11-11T02:11:44.094Z,23.37
2018-11-11T02:14:14.853Z,23.90
2018-11-11T02:16:45.703Z,22.57
2018-11-11T02:19:16.447Z,26.23
2018-11-11T02:21:47.302Z,23.77
2018-11-11T02:24:17.550Z,27.90
2018-11-11T02:26:48.151Z,27.07
2018-11-11T02:29:18.757Z,27.00
2018-11-11T02:31:49.515Z,26.57
2018-11-11T02:34:20.158Z,27.10
2018-11-11T02:36:50.165Z,25.30
2018-11-11T02:39:21.081Z,25.57
2018-11-11T02:41:52.121Z,26.83
2018-11-11T02:44:22.677Z,26.30
2018-11-11T02:46:53.167Z,27.33
2018-11-11T02:49:24.057Z,28.47
2018-11-11T02:51:55.047Z,25.60
2018-11-11T02:54:25.696Z,29.90
2018-11-11T02:56:56.614Z,29.37
2018-11-11T02:59:27.517Z,28.80
2018-11-11T03:01:58.206Z,29.97
2018-11-11T03:04:29.300Z,31.43
2018-11-11T03:07:01.040Z,28.87
2018-11-11T03:09:32.172Z,29.43
2018-11-11T03:12:02.812Z,28.17
2018-11-11T03:14:33.123Z,28.40
2018-11-11T03:17:03.791Z,25.47
2018-11-11T03:19:34.882Z,26.73
2018-11-11T03:22:06.408Z,26.77
2018-11-11T03:24:36.385Z,29.17
2018-11-11T03:27:06.468Z,29.40
2018-11-11T03:29:36.454Z,28.37
2018-11-11T03:32:07.291Z,28.93
2018-11-11T03:34:38.268Z,27.43
2018-11-11T03:37:09.162Z,28.37
2018-11-11T03:39:40.103Z,27.50
2018-11-11T03:42:10.843Z,28.37
2018-11-11T03:44:42.061Z,30.67
2018-11-11T03:47:12.936Z,29.27
2018-11-11T03:49:43.836Z,26.43
2018-11-11T03:52:14.195Z,27.43
2018-11-11T03:54:45.121Z,31.07
2018-11-11T03:57:15.845Z,32.03
2018-11-11T03:59:46.741Z,31.03
2018-11-11T04:02:17.738Z,30.40
2018-11-11T04:04:48.441Z,30.73
2018-11-11T04:07:19.570Z,32.47
2018-11-11T04:09:49.546Z,29.80
2018-11-11T04:12:20.999Z,31.60
2018-11-11T04:14:51.664Z,30.53
2018-11-11T04:17:22.461Z,30.33
2018-11-11T04:19:53.148Z,30.97
2018-11-11T04:22:24.000Z,30.53
2018-11-11T04:24:54.743Z,29.90
2018-11-11T04:27:24.722Z,30.30
2018-11-11T04:29:55.527Z,26.77
2018-11-11T04:32:26.576Z,26.00
2018-11-11T04:34:57.620Z,25.27
2018-11-11T04:37:28.715Z,26.17
2018-11-11T04:39:59.657Z,24.60
2018-11-11T04:42:30.660Z,26.30
2018-11-11T04:45:01.492Z,24.73
2018-11-11T04:47:32.142Z,24.07
2018-11-11T04:50:02.652Z,23.57
2018-11-11T04:52:33.406Z,23.20
2018-11-11T04:55:04.253Z,24.07
2018-11-11T04:57:34.810Z,22.57
2018-11-11T05:00:05.224Z,24.17
2018-11-11T05:02:35.318Z,21.47
2018-11-11T05:05:06.380Z,23.80
2018-11-11T05:07:36.922Z,39.20
2018-11-11T05:10:08.225Z,27.33
2018-11-11T05:12:38.908Z,23.13
2018-11-11T05:15:10.547Z,22.13
2018-11-11T05:17:41.520Z,22.10
2018-11-11T05:20:13.303Z,21.20
2018-11-11T05:22:44.310Z,20.00
2018-11-11T05:25:15.969Z,22.73
2018-11-11T05:27:46.739Z,20.53
2018-11-11T05:30:17.502Z,19.57
2018-11-11T05:32:48.693Z,22.03
2018-11-11T05:35:19.245Z,21.80
2018-11-11T05:37:50.081Z,20.27
2018-11-11T05:40:20.116Z,20.43
2018-11-11T05:42:50.959Z,20.37
2018-11-11T05:45:22.514Z,19.90
2018-11-11T05:47:54.133Z,20.67
2018-11-11T05:50:25.128Z,21.20
2018-11-11T05:52:56.222Z,20.17
2018-11-11T05:55:27.233Z,23.40
2018-11-11T05:57:57.247Z,23.37
2018-11-11T06:00:28.242Z,22.30
2018-11-11T06:02:59.666Z,23.47
2018-11-11T06:05:31.357Z,22.53
2018-11-11T06:08:02.317Z,22.00
2018-11-11T06:10:33.170Z,22.53
2018-11-11T06:13:04.181Z,22.97
2018-11-11T06:15:34.776Z,30.87
2018-11-11T06:18:05.867Z,31.33
2018-11-11T06:20:36.166Z,24.93
2018-11-11T06:23:06.993Z,28.10
2018-11-11T06:25:37.947Z,29.27
2018-11-11T06:28:09.165Z,27.93
2018-11-11T06:30:40.119Z,29.57
2018-11-11T06:33:11.222Z,26.90
2018-11-11T06:35:42.485Z,25.43
2018-11-11T06:38:13.875Z,26.13
2018-11-11T06:40:44.758Z,24.90
2018-11-11T06:43:16.034Z,22.23
2018-11-11T06:45:47.225Z,24.57
2018-11-11T06:48:17.949Z,22.37
2018-11-11T06:50:49.366Z,23.07
2018-11-11T06:53:20.239Z,23.83
2018-11-11T06:55:51.536Z,23.63
2018-11-11T06:58:22.927Z,23.50
2018-11-11T07:00:54.265Z,21.07
2018-11-11T07:03:36.060Z,18.80
2018-11-11T07:06:07.398Z,19.40
2018-11-11T07:08:37.909Z,18.67
2018-11-11T07:11:08.886Z,18.27
2018-11-11T07:13:40.095Z,16.27
2018-11-11T07:16:11.700Z,17.47
2018-11-11T07:18:43.967Z,18.57
2018-11-11T07:21:15.643Z,18.80
2018-11-11T07:23:48.252Z,19.77
2018-11-11T07:26:18.837Z,19.60
2018-11-11T07:28:49.823Z,19.87
2018-11-11T07:31:20.851Z,20.90
2018-11-11T07:33:51.839Z,20.17
2018-11-11T07:36:23.410Z,19.87
2018-11-11T07:38:54.285Z,19.90
2018-11-11T07:41:25.370Z,20.97
2018-11-11T07:43:56.519Z,17.57
2018-11-11T07:46:26.471Z,25.27
2018-11-11T07:48:57.897Z,25.90
2018-11-11T07:51:29.491Z,26.30
2018-11-11T07:54:00.410Z,23.77
2018-11-11T07:56:31.160Z,21.43
2018-11-11T07:59:01.785Z,20.57
2018-11-11T08:01:32.645Z,17.17
2018-11-11T08:04:03.536Z,15.77
2018-11-11T08:06:34.590Z,14.20
2018-11-11T08:09:06.290Z,16.60
2018-11-11T08:11:47.623Z,14.77
2018-11-11T08:14:18.439Z,16.03
2018-11-11T08:16:50.059Z,15.80
2018-11-11T08:19:20.812Z,15.83
2018-11-11T08:21:51.652Z,21.93
2018-11-11T08:24:22.605Z,20.53
2018-11-11T08:26:54.381Z,16.40
2018-11-11T08:29:25.176Z,18.17
2018-11-11T08:31:56.444Z,19.10
2018-11-11T08:34:27.727Z,17.57
2018-11-11T08:36:58.660Z,18.83
2018-11-11T08:39:29.886Z,17.80
2018-11-11T08:42:01.299Z,16.90
2018-11-11T08:44:32.248Z,16.30
2018-11-11T08:47:02.340Z,16.80
2018-11-11T08:49:33.263Z,18.23
2018-11-11T08:52:04.104Z,18.17
2018-11-11T08:54:35.349Z,18.20
2018-11-11T08:57:06.617Z,20.43
2018-11-11T08:59:37.839Z,17.87
2018-11-11T09:02:08.808Z,16.50
2018-11-11T09:04:39.870Z,19.73
2018-11-11T09:07:10.885Z,19.27
2018-11-11T09:09:40.980Z,17.07
2018-11-11T09:12:10.904Z,17.93
2018-11-11T09:14:41.113Z,18.10
2018-11-11T09:17:12.407Z,16.90
2018-11-11T09:19:43.467Z,18.23
2018-11-11T09:22:14.501Z,17.33
2018-11-11T09:24:45.557Z,18.40
2018-11-11T09:27:16.011Z,18.37
2018-11-11T09:29:47.498Z,17.53
2018-11-11T09:32:17.856Z,18.77
2018-11-11T09:34:49.129Z,19.03
2018-11-11T09:37:19.927Z,19.83
2018-11-11T09:39:51.068Z,21.87
2018-11-11T09:42:21.227Z,18.93
2018-11-11T09:44:52.507Z,19.13
2018-11-11T09:47:23.562Z,21.10
2018-11-11T09:49:55.828Z,20.90
2018-11-11T09:52:27.115Z,21.10
2018-11-11T09:54:58.331Z,20.30
2018-11-11T09:57:29.357Z,21.30
2018-11-11T09:59:59.408Z,20.33
2018-11-11T10:02:30.225Z,20.33
2018-11-11T10:06:08.723Z,19.77
2018-11-11T10:08:45.492Z,19.27
2018-11-11T10:11:22.205Z,20.37
2018-11-11T10:14:01.939Z,18.80
2018-11-11T10:16:44.662Z,21.37
2018-11-11T10:19:34.613Z,20.17
2018-11-11T10:22:14.300Z,19.63
2018-11-11T10:24:55.583Z,19.50
2018-11-11T10:27:32.260Z,18.23
2018-11-11T10:30:09.591Z,19.27
2018-11-11T10:32:56.091Z,20.53
2018-11-11T10:36:31.384Z,18.10
2018-11-11T10:39:05.629Z,18.37
2018-11-11T10:41:55.841Z,18.67
2018-11-11T10:44:32.960Z,18.40
2018-11-11T10:47:05.752Z,20.03
2018-11-11T10:49:45.777Z,18.90
2018-11-11T10:52:16.829Z,20.83
2018-11-11T10:54:46.975Z,18.90
2018-11-11T10:57:17.469Z,18.67
2018-11-11T10:59:48.332Z,18.50
2018-11-11T11:02:20.791Z,21.90
2018-11-11T11:04:56.671Z,19.17
2018-11-11T11:07:26.881Z,18.67
2018-11-11T11:09:57.059Z,17.37
2018-11-11T11:12:27.822Z,19.13
2018-11-11T11:14:58.104Z,21.83
2018-11-11T11:17:28.044Z,17.40
2018-11-11T11:19:58.107Z,16.30
2018-11-11T11:22:29.068Z,16.53
2018-11-11T11:24:59.767Z,16.63
2018-11-11T11:27:30.772Z,13.80
2018-11-11T11:30:01.614Z,15.30
2018-11-11T11:32:32.405Z,15.83
2018-11-11T11:35:03.385Z,15.47
2018-11-11T11:37:33.313Z,17.47
2018-11-11T11:40:04.958Z,17.00
2018-11-11T11:42:35.471Z,16.17
2018-11-11T11:45:07.296Z,16.80
2018-11-11T11:47:37.864Z,17.07
2018-11-11T11:50:09.662Z,15.90
2018-11-11T11:52:40.513Z,16.67
2018-11-11T11:55:11.857Z,15.77
2018-11-11T11:57:43.271Z,14.87
2018-11-11T12:00:14.421Z,17.30
2018-11-11T12:02:45.445Z,19.57
2018-11-11T12:05:16.694Z,17.40
2018-11-11T12:07:47.912Z,16.60
2018-11-11T12:10:19.138Z,16.87
2018-11-11T12:12:50.485Z,17.60
2018-11-11T12:15:21.469Z,18.33
2018-11-11T12:17:52.250Z,17.17
2018-11-11T12:20:24.358Z,18.53
2018-11-11T12:22:55.109Z,18.53
2018-11-11T12:25:25.909Z,18.70
2018-11-11T12:27:58.050Z,17.33
2018-11-11T12:30:29.327Z,18.07
2018-11-11T12:33:00.413Z,18.57
2018-11-11T12:35:31.519Z,22.23
2018-11-11T12:38:02.913Z,16.63
2018-11-11T12:40:33.677Z,18.20
2018-11-11T12:43:04.940Z,20.83
2018-11-11T12:45:35.523Z,20.47
2018-11-11T12:48:06.404Z,18.57
2018-11-11T12:50:36.380Z,20.23
2018-11-11T12:53:07.270Z,22.47
2018-11-11T12:55:38.172Z,21.97
2018-11-11T12:58:09.125Z,21.13
2018-11-11T13:00:40.165Z,20.60
2018-11-11T13:03:11.194Z,23.43
2018-11-11T13:05:41.169Z,21.10
2018-11-11T13:08:11.670Z,22.07
2018-11-11T13:10:42.864Z,21.43
2018-11-11T13:13:13.593Z,28.83
2018-11-11T13:15:44.505Z,23.40
2018-11-11T13:18:15.998Z,25.23
2018-11-11T13:20:46.855Z,20.10
2018-11-11T13:23:17.696Z,28.83
2018-11-11T13:25:48.481Z,21.47
2018-11-11T13:28:19.551Z,32.33
2018-11-11T13:30:50.454Z,22.77
2018-11-11T13:33:21.288Z,23.03
2018-11-11T13:35:52.741Z,26.07
2018-11-11T13:38:23.813Z,16.77
2018-11-11T13:40:54.540Z,14.47
2018-11-11T13:43:25.074Z,15.90
2018-11-11T13:45:56.261Z,17.57
2018-11-11T13:48:27.143Z,21.90
2018-11-11T13:50:57.946Z,20.50
2018-11-11T13:53:28.873Z,17.53
2018-11-11T13:56:00.453Z,16.93
2018-11-11T13:58:31.499Z,18.00
2018-11-11T14:01:02.225Z,17.13
2018-11-11T14:03:33.474Z,21.73
2018-11-11T14:06:03.616Z,18.10
2018-11-11T14:08:34.399Z,32.77
2018-11-11T14:11:06.544Z,19.97
2018-11-11T14:13:38.101Z,17.03
2018-11-11T14:16:09.740Z,21.40
2018-11-11T14:18:40.957Z,17.33
2018-11-11T14:21:12.545Z,16.73
2018-11-11T14:23:44.538Z,16.27
2018-11-11T14:26:16.035Z,15.90
2018-11-11T14:28:47.560Z,15.80
2018-11-11T14:31:18.604Z,18.10
2018-11-11T14:33:49.847Z,16.67
2018-11-11T14:36:21.231Z,15.93
2018-11-11T14:38:52.958Z,21.27
2018-11-11T14:41:24.215Z,18.30
2018-11-11T14:43:55.210Z,16.23
2018-11-11T14:46:26.447Z,27.27
2018-11-11T14:48:57.498Z,65.67
2018-11-11T14:51:29.186Z,131.93
2018-11-11T14:54:00.400Z,23.03
2018-11-11T14:56:31.130Z,16.87
2018-11-11T14:59:02.357Z,18.50
2018-11-11T15:01:33.875Z,21.43
2018-11-11T15:04:06.631Z,19.97
2018-11-11T15:06:36.821Z,21.03
2018-11-11T15:09:12.462Z,22.27
2018-11-11T15:11:43.676Z,20.03
2018-11-11T15:14:15.114Z,19.60
2018-11-11T15:16:46.425Z,30.67
2018-11-11T15:19:16.961Z,31.33
2018-11-11T15:21:48.130Z,36.27
2018-11-11T15:24:19.191Z,33.67
2018-11-11T15:26:50.634Z,28.17
2018-11-11T15:29:21.597Z,27.40
2018-11-11T15:31:52.401Z,26.77
2018-11-11T15:34:23.854Z,27.23
2018-11-11T15:36:55.055Z,25.53
2018-11-11T15:39:26.420Z,22.40
2018-11-11T15:41:57.374Z,22.30
2018-11-11T15:44:28.790Z,22.90
2018-11-11T15:47:00.092Z,22.30
2018-11-11T15:49:31.120Z,23.03
2018-11-11T15:52:02.613Z,23.67
2018-11-11T15:54:34.171Z,23.00
2018-11-11T15:57:05.483Z,23.17
2018-11-11T15:59:36.508Z,24.43
2018-11-11T16:02:07.912Z,23.73
2018-11-11T16:04:39.269Z,22.83
2018-11-11T16:07:10.809Z,21.27
2018-11-11T16:09:41.500Z,21.60
2018-11-11T16:12:12.763Z,21.17
2018-11-11T16:14:43.633Z,21.43
2018-11-11T16:17:14.987Z,20.20
2018-11-11T16:19:46.051Z,21.50
2018-11-11T16:22:16.958Z,21.53
2018-11-11T16:24:48.557Z,23.30
2018-11-11T16:27:19.525Z,22.87
2018-11-11T16:29:50.308Z,22.37
2018-11-11T16:32:21.148Z,22.20
2018-11-11T16:34:52.033Z,22.50
2018-11-11T16:37:22.856Z,23.47
2018-11-11T16:39:53.364Z,23.80
2018-11-11T16:42:24.229Z,21.77
2018-11-11T16:44:55.098Z,22.60
2018-11-11T16:47:25.888Z,19.73
2018-11-11T16:49:56.786Z,21.73
2018-11-11T16:52:27.894Z,21.00
2018-11-11T16:54:58.910Z,21.40
2018-11-11T16:57:29.708Z,20.27
2018-11-11T16:59:59.967Z,23.90
2018-11-11T17:02:30.795Z,24.20
2018-11-11T17:05:02.481Z,25.67
2018-11-11T17:07:33.379Z,28.40
2018-11-11T17:10:04.296Z,26.53
2018-11-11T17:12:35.246Z,28.60
2018-11-11T17:15:07.853Z,28.20
2018-11-11T17:17:38.634Z,27.80
2018-11-11T17:20:11.487Z,29.33
2018-11-11T17:22:43.611Z,30.40
2018-11-11T17:25:15.430Z,29.13
2018-11-11T17:27:46.764Z,25.93
2018-11-11T17:30:19.584Z,25.63
2018-11-11T17:32:51.649Z,25.73
2018-11-11T17:35:22.658Z,25.70
2018-11-11T17:37:54.087Z,25.77
2018-11-11T17:40:25.878Z,25.87
2018-11-11T17:42:57.431Z,27.13
2018-11-11T17:45:27.706Z,25.97
2018-11-11T17:47:59.002Z,25.63
2018-11-11T17:50:31.436Z,25.53
2018-11-11T17:53:03.704Z,30.33
2018-11-11T17:55:34.960Z,34.47
2018-11-11T17:58:06.134Z,27.67
2018-11-11T18:00:37.172Z,26.90
2018-11-11T18:03:08.854Z,26.50
2018-11-11T18:05:40.086Z,25.07
2018-11-11T18:08:11.341Z,26.47
2018-11-11T18:10:42.907Z,28.43
2018-11-11T18:13:15.255Z,35.67
2018-11-11T18:15:48.103Z,34.10
2018-11-11T18:18:20.640Z,34.67
2018-11-11T18:20:53.227Z,34.20
2018-11-11T18:23:26.310Z,33.60
2018-11-11T18:25:58.074Z,31.87
2018-11-11T18:28:30.268Z,32.67
2018-11-11T18:31:03.113Z,34.60
2018-11-11T18:33:35.279Z,36.93
2018-11-11T18:36:07.097Z,38.43
2018-11-11T18:38:39.094Z,38.57
2018-11-11T18:41:11.422Z,39.07
2018-11-11T18:43:42.615Z,41.20
2018-11-11T18:46:15.462Z,42.33
2018-11-11T18:48:48.040Z,41.07
2018-11-11T18:51:20.266Z,40.17
2018-11-11T18:53:52.537Z,41.77
2018-11-11T18:56:24.509Z,41.10
2018-11-11T18:58:56.630Z,41.03
2018-11-11T19:01:28.336Z,41.57
2018-11-11T19:04:00.889Z,39.90
2018-11-11T19:06:34.211Z,38.77
2018-11-11T19:09:10.951Z,36.53
2018-11-11T19:11:42.443Z,38.10
2018-11-11T19:14:15.741Z,39.10
2018-11-11T19:16:49.480Z,38.53
2018-11-11T19:19:22.334Z,37.97
2018-11-11T19:21:55.836Z,36.97
2018-11-11T19:24:29.884Z,36.43
2018-11-11T19:27:02.730Z,36.43
2018-11-11T19:29:35.088Z,36.80
2018-11-11T19:32:08.317Z,40.27
2018-11-11T19:34:39.600Z,38.37
2018-11-11T19:37:10.822Z,37.17
2018-11-11T19:39:42.391Z,39.53
2018-11-11T19:42:13.671Z,38.83
2018-11-11T19:44:45.126Z,36.20
2018-11-11T19:47:16.350Z,49.27
2018-11-11T19:49:47.772Z,50.20
2018-11-11T19:52:18.939Z,50.80
2018-11-11T19:54:49.955Z,46.73
2018-11-11T19:57:21.018Z,44.63
2018-11-11T19:59:52.035Z,43.27
2018-11-11T20:02:23.753Z,44.27
2018-11-11T20:04:56.397Z,46.23
2018-11-11T20:07:27.606Z,46.37
2018-11-11T20:09:58.790Z,46.73
2018-11-11T20:12:30.203Z,44.90
2018-11-11T20:15:01.407Z,44.50
2018-11-11T20:17:32.469Z,44.50
2018-11-11T20:20:03.677Z,43.60
2018-11-11T20:22:34.945Z,42.93
2018-11-11T20:25:07.075Z,42.90
2018-11-11T20:27:38.409Z,43.60
2018-11-11T20:30:13.744Z,41.17
2018-11-11T20:32:44.732Z,44.03
2018-11-11T20:35:17.540Z,42.97
2018-11-11T20:37:48.621Z,43.77
2018-11-11T20:40:21.305Z,43.53
2018-11-11T20:42:52.995Z,40.97
2018-11-11T20:45:25.918Z,40.10
2018-11-11T20:47:56.908Z,38.70
2018-11-11T20:50:29.188Z,39.73
2018-11-11T20:53:01.909Z,39.50
2018-11-11T20:55:33.610Z,40.87
2018-11-11T20:58:05.749Z,41.33
2018-11-11T21:00:38.927Z,38.97
2018-11-11T21:03:10.962Z,39.17
2018-11-11T21:05:42.618Z,39.57
2018-11-11T21:08:14.014Z,40.40
2018-11-11T21:10:45.295Z,40.03
2018-11-11T21:13:16.845Z,39.93
2018-11-11T21:15:47.913Z,40.33
2018-11-11T21:18:19.004Z,39.67
2018-11-11T21:20:50.562Z,42.33
2018-11-11T21:23:21.629Z,40.37
2018-11-11T21:25:53.629Z,39.60
2018-11-11T21:28:24.845Z,38.37
2018-11-11T21:30:56.455Z,39.13
2018-11-11T21:33:28.043Z,38.73
2018-11-11T21:35:59.735Z,42.20
2018-11-11T21:38:30.806Z,38.87
2018-11-11T21:41:01.827Z,43.47
2018-11-11T21:43:32.651Z,44.93
2018-11-11T21:46:03.592Z,47.37
2018-11-11T21:48:34.473Z,41.10
2018-11-11T21:51:05.772Z,42.57
2018-11-11T21:53:38.924Z,43.47
2018-11-11T21:56:10.452Z,42.97
2018-11-11T21:58:41.642Z,40.60
2018-11-11T22:01:13.055Z,52.85
2018-11-11T22:03:44.927Z,41.07
2018-11-11T22:06:16.350Z,38.70
2018-11-11T22:08:47.971Z,38.17
2018-11-11T22:11:18.894Z,38.77
2018-11-11T22:13:50.303Z,36.57
2018-11-11T22:16:21.756Z,37.33
2018-11-11T22:18:53.057Z,37.30
2018-11-11T22:21:24.772Z,33.10
2018-11-11T22:23:56.563Z,32.33
2018-11-11T22:26:28.993Z,33.67
2018-11-11T22:29:00.582Z,30.23
2018-11-11T22:31:31.434Z,32.30
2018-11-11T22:34:01.593Z,31.43
2018-11-11T22:36:32.462Z,30.33
2018-11-11T22:39:04.087Z,31.47
2018-11-11T22:41:34.970Z,29.70
2018-11-11T22:44:05.214Z,30.97
2018-11-11T22:46:36.377Z,29.13
2018-11-11T22:49:08.750Z,27.37
2018-11-11T22:51:39.015Z,28.70
2018-11-11T22:54:09.976Z,29.13
2018-11-11T22:56:40.659Z,28.20
2018-11-11T22:59:11.339Z,28.20
2018-11-11T23:01:42.567Z,28.17
2018-11-11T23:04:12.672Z,27.57
2018-11-11T23:06:43.358Z,27.33
2018-11-11T23:09:14.373Z,27.97
2018-11-11T23:11:45.122Z,27.80
2018-11-11T23:14:15.095Z,26.07
2018-11-11T23:16:45.903Z,27.53
2018-11-11T23:19:17.086Z,26.33
2018-11-11T23:21:48.141Z,25.87
2018-11-11T23:24:19.560Z,28.13
2018-11-11T23:26:50.431Z,27.63
2018-11-11T23:29:21.369Z,28.47
2018-11-11T23:31:52.359Z,30.50
2018-11-11T23:34:23.126Z,29.20
2018-11-11T23:36:54.190Z,28.80
2018-11-11T23:39:25.052Z,26.53
2018-11-11T23:41:55.851Z,27.77
2018-11-11T23:44:26.609Z,26.13
2018-11-11T23:46:57.605Z,26.83
2018-11-11T23:49:28.457Z,25.50
2018-11-11T23:52:00.200Z,27.53
2018-11-11T23:54:30.638Z,28.00
2018-11-11T23:57:01.440Z,28.33
2018-11-11T23:59:32.092Z,28.70
